Time;durP1;ratioP1;P1;durP2;ratioP2;P2;SDS_P1;SDS_P2;PMS_P1;PMS_P2;Temp;Humidity;BMP_temperature;BMP_pressure;BME280_temperature;BME280_humidity;BME280_pressure;Samples;Min_cycle;Max_cycle;Signal;HPM_P1;HPM_P2
2022/08/09 00:02:30;;;;;;;;;1.00;1.00;;;;;24.21;53.16;99219.94;4946933;28;102527;-57
2022/08/09 00:04:58;;;;;;;;;1.00;1.00;;;;;24.21;52.93;99223.53;4949963;28;102816;-57
2022/08/09 00:07:45;;;;;;;;;2.00;1.00;;;;;24.21;53.34;99217.16;4948889;27;103291;-57
2022/08/09 00:10:13;;;;;;;;;1.00;1.00;;;;;24.21;53.17;99211.63;4952788;28;102461;-57
2022/08/09 00:12:48;;;;;;;;;1.67;1.00;;;;;24.21;53.22;99217.16;4959286;27;102569;-57
2022/08/09 00:15:21;;;;;;;;;2.00;1.00;;;;;24.21;53.15;99225.47;4948169;28;102542;-57
2022/08/09 00:18:08;;;;;;;;;2.33;1.00;;;;;24.20;53.02;99223.78;4939181;28;109978;-57
2022/08/09 00:20:38;;;;;;;;;1.33;1.33;;;;;24.20;53.34;99218.25;4954845;27;102928;-57
2022/08/09 00:23:16;;;;;;;;;1.00;1.00;;;;;24.18;53.16;99229.56;4955946;28;102062;-57
2022/08/09 00:26:09;;;;;;;;;2.00;1.33;;;;;24.17;53.06;99221.59;4945607;28;103134;-57
2022/08/09 00:28:39;;;;;;;;;1.67;1.00;;;;;24.15;53.21;99219.06;4948221;28;104054;-57
2022/08/09 00:31:06;;;;;;;;;2.33;1.33;;;;;24.17;53.14;99232.63;4951123;27;103402;-57
2022/08/09 00:33:54;;;;;;;;;2.00;1.00;;;;;24.17;53.06;99227.09;4952809;28;102462;-57
2022/08/09 00:36:22;;;;;;;;;1.33;1.33;;;;;24.15;53.32;99218.22;4961507;28;102301;-57
2022/08/09 00:38:56;;;;;;;;;1.67;1.67;;;;;24.16;53.17;99225.44;4958523;28;108985;-57
2022/08/09 00:41:24;;;;;;;;;1.00;1.00;;;;;24.15;53.17;99224.56;4954161;28;102794;-58
2022/08/09 00:44:12;;;;;;;;;2.33;2.33;;;;;24.15;53.24;99237.56;4944267;28;102491;-57
2022/08/09 00:46:54;;;;;;;;;1.00;1.00;;;;;24.15;52.89;99234.78;4957633;28;102305;-57
2022/08/09 00:49:33;;;;;;;;;1.00;1.00;;;;;24.13;53.16;99232.31;4952054;27;108977;-57
2022/08/09 00:52:03;;;;;;;;;2.00;2.00;;;;;24.14;53.05;99238.66;4944950;28;102336;-57
2022/08/09 00:54:41;;;;;;;;;1.00;1.00;;;;;24.13;53.24;99243.38;4944027;28;102815;-57
2022/08/09 00:57:10;;;;;;;;;2.33;1.33;;;;;24.12;52.99;99244.47;4958152;28;102231;-57
2022/08/09 00:59:39;;;;;;;;;2.00;1.00;;;;;24.12;53.05;99238.94;4950196;27;104516;-57
2022/08/09 01:02:21;;;;;;;;;1.00;1.00;;;;;24.10;53.33;99234.78;4928967;28;102367;-57
2022/08/09 01:05:01;;;;;;;;;1.00;1.00;;;;;24.11;53.31;99241.97;4946628;28;102732;-57
2022/08/09 01:07:45;;;;;;;;;1.00;1.00;;;;;24.10;52.93;99243.06;4932777;28;102237;-57
2022/08/09 01:10:34;;;;;;;;;1.00;1.00;;;;;24.08;53.20;99239.78;4948040;28;107865;-57
2022/08/09 01:13:39;;;;;;;;;0.00;0.00;;;;;24.09;52.96;99246.97;4943498;28;102073;-57
2022/08/09 01:16:29;;;;;;;;;1.00;1.00;;;;;24.09;53.08;99246.97;4944437;27;102446;-57
2022/08/09 01:19:00;;;;;;;;;1.67;1.67;;;;;24.08;53.07;99234.25;4955717;27;102167;-57
2022/08/09 01:21:50;;;;;;;;;0.67;0.67;;;;;24.08;53.01;99228.72;4934721;28;104064;-57
2022/08/09 01:24:38;;;;;;;;;2.00;1.00;;;;;24.08;53.21;99239.78;4946734;28;103169;-57
2022/08/09 01:27:14;;;;;;;;;1.00;1.00;;;;;24.08;53.11;99239.78;4957729;28;102684;-57
2022/08/09 01:29:49;;;;;;;;;1.00;1.00;;;;;24.06;53.22;99239.19;4942751;28;102510;-57
2022/08/09 01:32:25;;;;;;;;;1.33;1.00;;;;;24.06;53.35;99237.28;4944353;28;109013;-57
2022/08/09 01:35:01;;;;;;;;;1.00;1.00;;;;;24.05;53.19;99232.00;4944279;28;103046;-57
2022/08/09 01:37:50;;;;;;;;;1.00;1.00;;;;;24.04;53.23;99245.03;4946363;28;105218;-57
2022/08/09 01:40:36;;;;;;;;;1.00;1.00;;;;;24.02;53.17;99242.53;4948558;28;102745;-57
2022/08/09 01:43:03;;;;;;;;;1.00;1.00;;;;;24.00;53.09;99241.94;4947645;28;104083;-57
2022/08/09 01:45:32;;;;;;;;;1.00;1.00;;;;;24.00;53.30;99239.19;4946286;28;102828;-57
2022/08/09 01:48:01;;;;;;;;;1.67;1.00;;;;;24.00;53.24;99241.16;4949178;28;102649;-57
2022/08/09 01:50:31;;;;;;;;;2.00;2.00;;;;;24.01;53.23;99240.84;4962758;28;102186;-57
2022/08/09 01:53:07;;;;;;;;;1.00;1.00;;;;;24.01;53.32;99245.53;4946438;28;104285;-57
2022/08/09 01:55:46;;;;;;;;;1.33;1.33;;;;;24.00;53.03;99241.94;4934628;28;103455;-57
2022/08/09 01:58:13;;;;;;;;;1.33;1.00;;;;;24.01;53.31;99243.63;4949730;28;102412;-57
2022/08/09 02:00:44;;;;;;;;;1.00;1.00;;;;;23.99;53.09;99240.31;4951998;28;102483;-57
2022/08/09 02:03:16;;;;;;;;;1.67;1.33;;;;;24.00;53.11;99250.25;4935073;28;104155;-57
2022/08/09 02:05:43;;;;;;;;;2.67;2.00;;;;;24.00;53.17;99241.16;4947167;28;102322;-57
2022/08/09 02:08:30;;;;;;;;;1.00;1.00;;;;;23.99;53.27;99253.28;4926577;28;102603;-57
2022/08/09 02:11:17;;;;;;;;;1.00;1.00;;;;;23.98;53.26;99257.16;4956532;28;103168;-57
2022/08/09 02:13:45;;;;;;;;;2.00;2.00;;;;;23.97;53.26;99252.72;4942176;28;104080;-57
2022/08/09 02:16:34;;;;;;;;;1.00;1.00;;;;;23.95;53.37;99252.19;4937621;28;102513;-57
2022/08/09 02:19:21;;;;;;;;;1.33;1.33;;;;;23.95;53.36;99253.00;4934449;28;103290;-57
2022/08/09 02:21:50;;;;;;;;;1.00;1.00;;;;;23.95;53.23;99255.78;4955276;28;102111;-57
2022/08/09 02:24:23;;;;;;;;;1.33;1.33;;;;;23.93;53.17;99248.84;4944713;28;109081;-57
2022/08/09 02:26:54;;;;;;;;;1.00;1.00;;;;;23.93;53.39;99246.09;4944489;28;102540;-57
2022/08/09 02:29:26;;;;;;;;;1.00;1.00;;;;;23.93;53.18;99254.38;4933684;28;102441;-57
2022/08/09 02:32:00;;;;;;;;;2.00;1.33;;;;;23.92;53.25;99248.00;4926267;28;102502;-57
2022/08/09 02:34:31;;;;;;;;;1.00;1.00;;;;;23.91;53.30;99249.09;4961835;28;104090;-57
2022/08/09 02:37:12;;;;;;;;;2.33;1.67;;;;;23.90;53.19;99253.00;4947521;28;102754;-57
2022/08/09 02:39:53;;;;;;;;;1.00;0.67;;;;;23.91;53.05;99245.53;4952846;28;102447;-57
2022/08/09 02:42:30;;;;;;;;;2.00;1.00;;;;;23.92;53.17;99253.53;4957252;28;102998;-58
2022/08/09 02:45:04;;;;;;;;;1.00;1.00;;;;;23.91;53.40;99242.78;4944968;28;104208;-57
2022/08/09 02:47:33;;;;;;;;;2.67;2.00;;;;;23.91;53.06;99251.88;4967682;27;102136;-57
2022/08/09 02:50:26;;;;;;;;;2.67;2.00;;;;;23.89;53.25;99248.56;4955999;27;102632;-57
2022/08/09 02:52:57;;;;;;;;;1.00;1.00;;;;;23.87;53.54;99245.22;4954896;28;102194;-57
2022/08/09 02:55:24;;;;;;;;;2.33;2.00;;;;;23.85;53.30;99241.94;4938314;28;109157;-57
2022/08/09 02:58:13;;;;;;;;;1.00;1.00;;;;;23.86;53.39;99242.75;4963350;28;102993;-57
2022/08/09 03:01:00;;;;;;;;;1.33;1.33;;;;;23.86;53.26;99251.88;4947350;28;103182;-57
2022/08/09 03:03:30;;;;;;;;;1.00;1.00;;;;;23.85;53.45;99239.16;4949292;28;102703;-57
2022/08/09 03:06:17;;;;;;;;;1.67;1.67;;;;;23.84;53.49;99245.78;4959785;28;105361;-57
2022/08/09 03:08:47;;;;;;;;;1.33;1.33;;;;;23.84;53.46;99253.25;4952462;28;102560;-57
2022/08/09 03:11:16;;;;;;;;;1.00;1.00;;;;;23.82;53.49;99253.50;4954676;28;102625;-57
2022/08/09 03:14:03;;;;;;;;;2.00;1.33;;;;;23.81;53.52;99257.38;4954124;28;102453;-57
2022/08/09 03:16:30;;;;;;;;;1.33;1.00;;;;;23.82;53.29;99255.47;4950442;28;105783;-57
2022/08/09 03:18:58;;;;;;;;;1.00;1.00;;;;;23.83;53.32;99262.63;4943721;27;102299;-57
2022/08/09 03:21:27;;;;;;;;;2.00;2.00;;;;;23.81;53.34;99257.38;4952448;28;103416;-57
2022/08/09 03:24:05;;;;;;;;;1.67;1.33;;;;;23.81;53.31;99251.88;4948308;28;104130;-57
2022/08/09 03:26:35;;;;;;;;;1.33;1.33;;;;;23.82;53.10;99258.22;4960352;27;104417;-57
2022/08/09 03:29:11;;;;;;;;;1.00;1.00;;;;;23.82;53.44;99258.22;4929292;28;102493;-57
2022/08/09 03:31:48;;;;;;;;;1.00;0.33;;;;;23.79;53.40;99255.97;4944740;28;102623;-57
2022/08/09 03:34:26;;;;;;;;;1.00;1.00;;;;;23.78;53.38;99257.06;4952454;28;102552;-57
2022/08/09 03:36:55;;;;;;;;;1.33;1.33;;;;;23.77;53.40;99255.44;4956686;28;104186;-57
2022/08/09 03:39:26;;;;;;;;;1.00;1.00;;;;;23.75;53.45;99258.47;4952195;28;102625;-58
2022/08/09 03:42:04;;;;;;;;;2.00;1.00;;;;;23.75;53.62;99257.63;4951444;28;102244;-57
2022/08/09 03:44:32;;;;;;;;;1.00;1.00;;;;;23.75;53.33;99258.47;4949371;28;102340;-57
2022/08/09 03:46:59;;;;;;;;;1.00;1.00;;;;;23.75;53.60;99255.69;4955818;28;104113;-57
2022/08/09 03:49:27;;;;;;;;;1.00;1.00;;;;;23.76;53.47;99254.59;4956019;27;102668;-57
2022/08/09 03:52:01;;;;;;;;;1.00;1.00;;;;;23.75;53.31;99261.22;4957100;28;104705;-57
2022/08/09 03:54:36;;;;;;;;;1.00;1.00;;;;;23.75;53.40;99252.94;4926652;28;102187;-57
2022/08/09 03:57:10;;;;;;;;;2.33;1.67;;;;;23.75;53.56;99263.16;4952146;28;104084;-57
2022/08/09 03:59:45;;;;;;;;;1.00;1.00;;;;;23.75;53.30;99258.47;4944211;28;102407;-57
2022/08/09 04:02:22;;;;;;;;;1.00;1.00;;;;;23.75;53.30;99257.63;4968658;28;102636;-57
2022/08/09 04:04:54;;;;;;;;;1.00;1.00;;;;;23.75;53.25;99258.47;4961083;28;102240;-57
2022/08/09 04:07:24;;;;;;;;;1.00;1.00;;;;;23.72;53.49;99256.25;4940937;28;109153;-57
2022/08/09 04:10:11;;;;;;;;;1.00;1.00;;;;;23.71;53.43;99259.28;4942378;28;102629;-57
2022/08/09 04:12:45;;;;;;;;;1.67;1.67;;;;;23.70;53.49;99258.44;4957710;28;102180;-57
2022/08/09 04:15:15;;;;;;;;;1.00;1.00;;;;;23.69;53.38;99259.53;4957491;28;104209;-57
2022/08/09 04:18:03;;;;;;;;;2.00;2.00;;;;;23.68;53.42;99268.09;4954797;28;109990;-57
2022/08/09 04:20:32;;;;;;;;;2.00;1.00;;;;;23.68;53.31;99268.09;4932668;28;102999;-57
2022/08/09 04:22:59;;;;;;;;;2.00;1.00;;;;;23.66;53.29;99264.75;4946916;28;102082;-57
2022/08/09 04:25:28;;;;;;;;;1.00;1.00;;;;;23.67;52.94;99267.28;4949518;28;102485;-57
2022/08/09 04:27:56;;;;;;;;;1.00;1.00;;;;;23.67;53.21;99275.56;4943930;28;103791;-59
2022/08/09 04:30:30;;;;;;;;;1.33;1.00;;;;;23.67;52.98;99274.72;4951081;27;102594;-57
2022/08/09 04:32:58;;;;;;;;;1.00;1.00;;;;;23.64;53.10;99272.50;4944746;28;102399;-58
2022/08/09 04:35:26;;;;;;;;;2.00;1.33;;;;;23.64;53.09;99273.31;4956306;28;102465;-57
2022/08/09 04:37:55;;;;;;;;;1.67;1.00;;;;;23.65;53.15;99274.16;4946699;28;104167;-57
2022/08/09 04:40:22;;;;;;;;;2.00;2.00;;;;;23.64;53.16;99275.28;4951923;28;102476;-57
2022/08/09 04:43:02;;;;;;;;;1.67;1.67;;;;;23.67;53.03;99269.19;4951565;28;102497;-57
2022/08/09 04:45:31;;;;;;;;;1.00;1.00;;;;;23.64;52.96;99275.28;4949887;28;102608;-57
2022/08/09 04:48:18;;;;;;;;;1.00;1.00;;;;;23.66;52.94;99265.59;4952463;28;105376;-57
2022/08/09 04:50:45;;;;;;;;;1.00;1.00;;;;;23.63;52.89;99271.66;4963302;28;102001;-57
2022/08/09 04:53:15;;;;;;;;;1.00;1.00;;;;;23.62;52.95;99274.69;4948124;28;102220;-57
2022/08/09 04:55:42;;;;;;;;;1.00;1.00;;;;;23.62;52.95;99282.97;4943177;28;102885;-57
2022/08/09 04:58:28;;;;;;;;;1.00;1.00;;;;;23.61;52.91;99290.44;4946375;28;109177;-57
2022/08/09 05:00:59;;;;;;;;;2.00;1.00;;;;;23.61;52.83;99292.34;4942151;28;102538;-57
2022/08/09 05:03:26;;;;;;;;;0.67;0.67;;;;;23.62;52.99;99291.25;4952190;28;103413;-57
2022/08/09 05:06:12;;;;;;;;;1.33;1.00;;;;;23.60;52.83;99288.75;4932346;28;102435;-57
2022/08/09 05:08:55;;;;;;;;;1.00;1.00;;;;;23.62;52.89;99285.75;4951886;28;109028;-57
2022/08/09 05:11:27;;;;;;;;;1.00;1.00;;;;;23.62;52.82;99292.09;4955464;28;102373;-59
2022/08/09 05:13:58;;;;;;;;;2.00;1.00;;;;;23.62;52.90;99285.75;4959210;27;102106;-57
2022/08/09 05:16:25;;;;;;;;;2.00;2.00;;;;;23.64;52.79;99295.41;4958132;28;102218;-57
2022/08/09 05:18:57;;;;;;;;;0.00;0.00;;;;;23.65;52.81;99297.06;4962145;28;109272;-58
2022/08/09 05:21:27;;;;;;;;;1.33;1.00;;;;;23.63;52.74;99293.75;4951116;28;102451;-57
2022/08/09 05:23:56;;;;;;;;;1.00;1.00;;;;;23.61;53.01;99300.63;4948092;28;102607;-58
2022/08/09 05:26:28;;;;;;;;;1.00;1.00;;;;;23.63;52.71;99293.75;4941591;28;102268;-58
2022/08/09 05:29:20;;;;;;;;;0.00;0.00;;;;;23.63;52.89;99296.53;4950331;28;104246;-57
2022/08/09 05:31:50;;;;;;;;;1.67;1.00;;;;;23.62;52.91;99302.31;4965129;28;102531;-57
2022/08/09 05:34:27;;;;;;;;;1.00;1.00;;;;;23.64;52.91;99309.22;4945997;28;102357;-57
2022/08/09 05:37:01;;;;;;;;;1.67;1.00;;;;;23.64;52.75;99306.44;4956382;28;102227;-57
2022/08/09 05:39:36;;;;;;;;;2.00;2.00;;;;;23.66;52.56;99301.50;4959755;28;104227;-57
2022/08/09 05:42:14;;;;;;;;;2.00;1.33;;;;;23.67;52.74;99299.56;4942176;28;102195;-57
2022/08/09 05:44:56;;;;;;;;;1.00;1.00;;;;;23.68;52.69;99301.25;4957405;28;102505;-57
2022/08/09 05:47:26;;;;;;;;;1.00;1.00;;;;;23.69;52.28;99297.34;4955729;28;102352;-57
2022/08/09 05:49:58;;;;;;;;;1.00;1.00;;;;;23.69;52.55;99306.47;4956798;28;109743;-57
2022/08/09 05:52:45;;;;;;;;;1.00;1.00;;;;;23.70;52.42;99310.06;4947498;28;102003;-57
2022/08/09 05:55:20;;;;;;;;;1.00;1.00;;;;;23.71;52.36;99300.69;4944778;28;102021;-57
2022/08/09 05:57:50;;;;;;;;;1.00;1.00;;;;;23.71;52.45;99306.22;4951246;28;102533;-57
2022/08/09 06:00:25;;;;;;;;;1.33;1.33;;;;;23.70;52.34;99302.63;4953443;28;108872;-57
2022/08/09 06:02:56;;;;;;;;;0.33;0.33;;;;;23.69;52.37;99303.72;4949059;28;102350;-57
2022/08/09 06:05:25;;;;;;;;;1.33;1.33;;;;;23.71;52.29;99308.97;4950907;28;103034;-57
2022/08/09 06:08:12;;;;;;;;;1.00;1.00;;;;;23.71;52.29;99304.28;4952838;28;102458;-57
2022/08/09 06:10:45;;;;;;;;;1.00;1.00;;;;;23.71;52.46;99307.06;4953165;28;104097;-57
2022/08/09 06:13:16;;;;;;;;;1.67;1.67;;;;;23.73;52.32;99315.06;4948593;28;101983;-57
2022/08/09 06:15:46;;;;;;;;;0.67;0.00;;;;;23.71;52.35;99304.28;4932513;28;102612;-57
2022/08/09 06:18:18;;;;;;;;;1.00;1.00;;;;;23.73;52.24;99310.34;4939928;28;102639;-57
2022/08/09 06:20:50;;;;;;;;;1.00;1.00;;;;;23.74;52.31;99311.19;4947756;28;104259;-57
2022/08/09 06:23:30;;;;;;;;;0.33;0.33;;;;;23.73;52.27;99307.59;4951619;28;102063;-57
2022/08/09 06:26:18;;;;;;;;;1.00;1.00;;;;;23.75;52.08;99308.16;4948511;28;102790;-57
2022/08/09 06:28:56;;;;;;;;;2.00;0.00;;;;;23.76;52.20;99306.25;4954902;28;102381;-57
2022/08/09 06:31:31;;;;;;;;;1.33;1.33;;;;;23.76;52.22;99315.38;4947425;28;108910;-57
2022/08/09 06:34:18;;;;;;;;;1.00;1.00;;;;;23.76;52.27;99315.38;4946253;28;102728;-57
2022/08/09 06:36:48;;;;;;;;;1.00;1.00;;;;;23.75;52.13;99313.69;4946167;28;102381;-57
2022/08/09 06:39:24;;;;;;;;;1.00;1.00;;;;;23.75;52.41;99308.16;4960779;28;102455;-57
2022/08/09 06:42:11;;;;;;;;;0.00;0.00;;;;;23.77;52.13;99307.91;4952695;28;109869;-57
2022/08/09 06:44:38;;;;;;;;;2.33;1.00;;;;;23.77;51.97;99313.44;4946474;28;102165;-57
2022/08/09 06:47:06;;;;;;;;;1.00;1.00;;;;;23.77;52.12;99311.50;4950047;28;102587;-57
2022/08/09 06:49:34;;;;;;;;;0.67;0.67;;;;;23.78;52.05;99309.53;4949589;28;102357;-57
2022/08/09 06:52:21;;;;;;;;;1.00;1.00;;;;;23.82;51.99;99318.97;4946721;28;105038;-57
2022/08/09 06:54:50;;;;;;;;;0.33;0.33;;;;;23.81;52.03;99318.16;4939125;28;102610;-57
2022/08/09 06:57:20;;;;;;;;;1.00;1.00;;;;;23.81;52.15;99306.28;4947196;28;102023;-57
2022/08/09 07:00:08;;;;;;;;;1.00;1.00;;;;;23.81;52.13;99312.63;4951459;28;102429;-57
2022/08/09 07:02:55;;;;;;;;;1.00;1.00;;;;;23.81;52.07;99307.09;4949103;28;110024;-57
2022/08/09 07:05:24;;;;;;;;;0.67;0.67;;;;;23.82;52.06;99314.25;4959408;28;102184;-57
2022/08/09 07:08:11;;;;;;;;;1.00;1.00;;;;;23.83;52.09;99312.34;4944297;28;104704;-57
2022/08/09 07:10:39;;;;;;;;;2.67;1.00;;;;;23.82;52.08;99317.03;4954520;28;102277;-57
2022/08/09 07:13:06;;;;;;;;;0.67;0.67;;;;;23.83;51.96;99315.94;4949382;28;104071;-57
2022/08/09 07:15:53;;;;;;;;;1.33;1.00;;;;;23.83;52.00;99310.41;4963142;28;102466;-57
2022/08/09 07:18:40;;;;;;;;;1.00;1.00;;;;;23.82;51.86;99319.78;4934788;28;103156;-57
2022/08/09 07:21:08;;;;;;;;;1.00;1.00;;;;;23.81;51.91;99320.91;4950388;28;102484;-57
2022/08/09 07:23:36;;;;;;;;;1.00;1.00;;;;;23.82;51.96;99317.03;4959687;28;104111;-57
2022/08/09 07:26:24;;;;;;;;;0.33;0.33;;;;;23.84;52.15;99325.06;4939241;28;102054;-57
2022/08/09 07:28:51;;;;;;;;;2.00;1.00;;;;;23.83;51.94;99326.97;4951609;28;102229;-57
2022/08/09 07:31:39;;;;;;;;;1.00;1.00;;;;;23.84;52.20;99323.13;4956508;28;102471;-57
2022/08/09 07:34:13;;;;;;;;;1.00;1.00;;;;;23.84;52.13;99328.66;4964353;28;104096;-57
2022/08/09 07:36:47;;;;;;;;;0.33;0.33;;;;;23.84;51.92;99323.13;4954434;28;102222;-57
2022/08/09 07:39:15;;;;;;;;;1.00;1.00;;;;;23.85;51.86;99323.97;4963016;28;102186;-57
2022/08/09 07:42:03;;;;;;;;;0.67;0.67;;;;;23.84;51.99;99328.66;4953165;28;103062;-57
2022/08/09 07:44:30;;;;;;;;;1.67;1.00;;;;;23.85;52.07;99329.47;4955113;28;104439;-57
2022/08/09 07:47:18;;;;;;;;;1.00;1.00;;;;;23.85;52.06;99329.47;4952539;28;102383;-57
2022/08/09 07:49:46;;;;;;;;;0.67;0.67;;;;;23.85;51.86;99333.09;4950765;28;102391;-57
2022/08/09 07:52:33;;;;;;;;;1.00;1.00;;;;;23.85;51.86;99333.09;4945353;28;102193;-57
2022/08/09 07:55:02;;;;;;;;;1.33;1.33;;;;;23.86;51.97;99334.75;4949861;28;104049;-57
2022/08/09 07:57:35;;;;;;;;;1.00;1.00;;;;;23.87;51.86;99333.63;4952319;28;102161;-57
2022/08/09 08:00:16;;;;;;;;;1.00;1.00;;;;;23.88;51.98;99329.78;4950864;28;102397;-57
2022/08/09 08:03:01;;;;;;;;;1.00;1.00;;;;;23.88;51.82;99328.94;4958750;28;102256;-57
2022/08/09 08:05:30;;;;;;;;;0.33;0.33;;;;;23.87;52.10;99333.63;4945997;28;104070;-57
2022/08/09 08:08:17;;;;;;;;;0.00;0.00;;;;;23.88;51.77;99324.25;4944967;28;102158;-57
2022/08/09 08:11:05;;;;;;;;;2.00;1.00;;;;;23.88;51.95;99338.06;4953983;28;102490;-57
2022/08/09 08:13:52;;;;;;;;;1.00;0.00;;;;;23.89;51.80;99333.38;4960672;28;102726;-57
2022/08/09 08:16:23;;;;;;;;;1.00;1.00;;;;;23.90;51.86;99327.59;4963925;28;109005;-57
2022/08/09 08:18:58;;;;;;;;;1.00;1.00;;;;;23.90;51.87;99332.28;4947521;28;102584;-57
2022/08/09 08:21:29;;;;;;;;;1.00;1.00;;;;;23.91;51.85;99322.88;4950950;27;102363;-57
2022/08/09 08:23:56;;;;;;;;;0.00;0.00;;;;;23.91;51.75;99333.94;4951658;28;102527;-57
2022/08/09 08:26:36;;;;;;;;;1.00;1.00;;;;;23.91;51.72;99340.25;4941232;28;108854;-57
2022/08/09 08:29:23;;;;;;;;;1.00;0.33;;;;;23.92;51.83;99330.88;4945407;28;102514;-57
2022/08/09 08:31:54;;;;;;;;;0.00;0.00;;;;;23.93;51.97;99348.28;4960955;28;102208;-57
2022/08/09 08:34:31;;;;;;;;;0.00;0.00;;;;;23.93;51.79;99345.53;4952023;28;102259;-57
2022/08/09 08:37:01;;;;;;;;;1.00;1.00;;;;;23.93;51.68;99346.38;4949223;28;104341;-57
2022/08/09 08:39:28;;;;;;;;;0.00;0.00;;;;;23.93;51.88;99343.59;4947437;28;102307;-58
2022/08/09 08:42:10;;;;;;;;;1.00;1.00;;;;;23.94;51.63;99342.50;4955492;28;102548;-57
2022/08/09 08:44:37;;;;;;;;;1.00;1.00;;;;;23.94;51.97;99339.75;4962023;28;104208;-57
2022/08/09 08:47:05;;;;;;;;;0.00;0.00;;;;;23.95;51.59;99341.41;4956295;28;104109;-57
2022/08/09 08:49:39;;;;;;;;;1.00;1.00;;;;;23.95;51.94;99338.66;4950729;28;102257;-57
2022/08/09 08:52:18;;;;;;;;;1.00;1.00;;;;;23.96;51.95;99343.06;4940823;28;102527;-57
2022/08/09 08:55:05;;;;;;;;;1.00;1.00;;;;;23.96;51.81;99345.81;4944325;28;102454;-57
2022/08/09 08:57:33;;;;;;;;;1.00;1.00;;;;;23.97;51.48;99347.50;4943286;28;104292;-57
2022/08/09 09:00:05;;;;;;;;;0.00;0.00;;;;;23.98;51.80;99345.56;4954012;28;102542;-57
2022/08/09 09:02:43;;;;;;;;;1.33;0.00;;;;;23.97;51.56;99321.78;4952358;28;102203;-57
2022/08/09 09:05:20;;;;;;;;;0.67;0.67;;;;;23.99;51.86;99341.69;4953450;28;102215;-57
2022/08/09 09:08:08;;;;;;;;;0.67;0.67;;;;;24.00;51.72;99348.91;4946564;28;109976;-57
2022/08/09 09:10:55;;;;;;;;;1.00;1.00;;;;;23.99;51.87;99331.47;4957880;28;102426;-57
2022/08/09 09:13:23;;;;;;;;;0.00;0.00;;;;;23.99;51.56;99331.47;4947843;28;102320;-57
2022/08/09 09:16:07;;;;;;;;;0.00;0.00;;;;;24.00;51.79;99337.84;4939029;28;102249;-57
2022/08/09 09:18:35;;;;;;;;;0.00;0.00;;;;;24.01;51.53;99336.72;4949565;28;104071;-57
2022/08/09 09:21:05;;;;;;;;;0.00;0.00;;;;;24.02;51.86;99349.44;4945553;28;102204;-57
2022/08/09 09:23:41;;;;;;;;;1.00;1.00;;;;;24.02;51.56;99336.47;4947025;28;102434;-57
2022/08/09 09:26:23;;;;;;;;;0.67;0.00;;;;;24.02;51.52;99342.00;4958599;28;102574;-57
2022/08/09 09:28:51;;;;;;;;;0.67;0.67;;;;;24.02;51.61;99342.00;4950871;28;104068;-57
2022/08/09 09:31:36;;;;;;;;;0.00;0.00;;;;;24.04;51.70;99338.13;4952881;28;102719;-57
2022/08/09 09:34:24;;;;;;;;;1.00;1.00;;;;;24.04;51.45;99350.00;4938128;28;102883;-57
2022/08/09 09:36:55;;;;;;;;;1.00;1.00;;;;;24.06;51.64;99341.44;4948175;28;102092;-57
2022/08/09 09:39:23;;;;;;;;;0.33;0.33;;;;;24.07;51.38;99351.41;4952130;28;112953;-57
2022/08/09 09:42:21;;;;;;;;;1.00;1.00;;;;;24.06;51.47;99341.44;4949843;28;102180;-57
2022/08/09 09:45:04;;;;;;;;;0.00;0.00;;;;;24.07;51.54;99348.63;4951951;28;102541;-57
2022/08/09 09:47:34;;;;;;;;;0.00;0.00;;;;;24.07;51.46;99348.63;4954598;28;102329;-57
2022/08/09 09:50:38;;;;;;;;;0.00;0.00;;;;;24.08;51.52;99347.53;4952998;28;103080;-57
2022/08/09 09:53:16;;;;;;;;;0.00;0.00;;;;;24.09;51.59;99340.91;4943464;28;102413;-57
2022/08/09 09:56:01;;;;;;;;;1.00;1.00;;;;;24.10;51.41;99334.25;4948456;28;102377;-57
2022/08/09 09:58:44;;;;;;;;;1.00;1.00;;;;;24.10;51.37;99334.25;4950921;28;102270;-57
2022/08/09 10:01:19;;;;;;;;;0.00;0.00;;;;;24.11;51.40;99331.25;4951550;28;104133;-57
2022/08/09 10:04:04;;;;;;;;;0.67;0.67;;;;;24.12;51.51;99334.84;4945543;28;102171;-57
2022/08/09 10:06:40;;;;;;;;;0.00;0.00;;;;;24.12;51.63;99334.84;4948955;28;102423;-57
2022/08/09 10:09:09;;;;;;;;;0.67;0.00;;;;;24.12;51.43;99340.38;4961576;28;102700;-57
2022/08/09 10:11:57;;;;;;;;;0.00;0.00;;;;;24.11;51.64;99320.19;4947446;28;104482;-57
2022/08/09 10:14:39;;;;;;;;;1.00;1.00;;;;;24.12;51.64;99326.53;4953294;28;102207;-57
2022/08/09 10:17:14;;;;;;;;;0.00;0.00;;;;;24.12;51.29;99329.31;4952813;28;102169;-57
2022/08/09 10:20:06;;;;;;;;;1.00;1.00;;;;;24.13;51.37;99325.44;4948976;28;102517;-57
2022/08/09 10:22:40;;;;;;;;;1.00;1.00;;;;;24.13;51.32;99314.41;4951351;28;104087;-57
2022/08/09 10:25:08;;;;;;;;;1.00;1.00;;;;;24.14;51.79;99316.03;4949129;28;102238;-57
2022/08/09 10:27:43;;;;;;;;;1.00;1.00;;;;;24.14;51.27;99325.16;4962067;28;102139;-57
2022/08/09 10:30:26;;;;;;;;;0.00;0.00;;;;;24.15;51.54;99312.19;4953666;28;102158;-57
2022/08/09 10:33:14;;;;;;;;;0.33;0.33;;;;;24.16;51.15;99316.63;4949865;28;108024;-57
2022/08/09 10:36:05;;;;;;;;;0.33;0.33;;;;;24.18;51.36;99317.22;4942997;28;102142;-57
2022/08/09 10:38:38;;;;;;;;;0.00;0.00;;;;;24.18;51.59;99318.00;4953045;28;102634;-57
2022/08/09 10:41:25;;;;;;;;;0.00;0.00;;;;;24.19;51.26;99305.03;4959666;28;102499;-57
2022/08/09 10:43:54;;;;;;;;;0.67;0.67;;;;;24.18;51.42;99312.47;4954764;28;108934;-57
2022/08/09 10:46:58;;;;;;;;;1.00;0.00;;;;;24.19;51.22;99310.56;4942260;28;102208;-57
2022/08/09 10:49:32;;;;;;;;;0.00;0.00;;;;;24.19;51.28;99316.09;4950681;28;102270;-57
2022/08/09 10:52:22;;;;;;;;;0.00;0.00;;;;;24.20;51.43;99298.41;4947415;28;105840;-57
2022/08/09 10:54:52;;;;;;;;;1.00;1.00;;;;;24.21;51.37;99300.06;4953520;28;103973;-57
2022/08/09 10:57:20;;;;;;;;;0.33;0.00;;;;;24.21;51.28;99295.38;4937027;28;102533;-57
2022/08/09 10:59:48;;;;;;;;;0.00;0.00;;;;;24.22;51.32;99290.69;4952607;28;102424;-57
2022/08/09 11:02:37;;;;;;;;;0.33;0.33;;;;;24.23;51.51;99297.84;4956397;28;102253;-57
2022/08/09 11:05:26;;;;;;;;;1.00;0.00;;;;;24.24;51.39;99307.81;4944396;28;110146;-57
2022/08/09 11:07:58;;;;;;;;;0.00;0.00;;;;;24.24;51.42;99302.28;4943289;28;102284;-57
2022/08/09 11:10:40;;;;;;;;;0.00;0.00;;;;;24.26;51.31;99311.16;4955444;28;102269;-57
2022/08/09 11:13:20;;;;;;;;;0.00;0.00;;;;;24.25;51.25;99307.56;4951944;28;102423;-57
2022/08/09 11:16:33;;;;;;;;;0.33;0.33;;;;;24.26;51.34;99305.63;4949255;28;109990;-57
2022/08/09 11:19:04;;;;;;;;;0.00;0.00;;;;;24.26;51.23;99291.78;4961500;28;102327;-57
2022/08/09 11:21:50;;;;;;;;;0.00;0.00;;;;;24.27;50.97;99294.25;4957304;28;102186;-57
2022/08/09 11:25:02;;;;;;;;;0.00;0.00;;;;;24.26;51.11;99284.34;4948005;28;102688;-57
2022/08/09 11:27:35;;;;;;;;;0.00;0.00;;;;;24.29;50.97;99288.47;4961387;28;108978;-58
2022/08/09 11:30:21;;;;;;;;;1.00;1.00;;;;;24.29;51.29;99283.78;4941959;28;102124;-57
2022/08/09 11:33:03;;;;;;;;;0.00;0.00;;;;;24.31;51.24;99289.06;4948747;28;102057;-58
2022/08/09 11:35:53;;;;;;;;;1.00;0.00;;;;;24.30;51.17;99290.97;4943833;28;102573;-58
2022/08/09 11:38:32;;;;;;;;;1.00;1.00;;;;;24.31;50.94;99289.06;4953841;28;104060;-57
2022/08/09 11:41:10;;;;;;;;;0.00;0.00;;;;;24.31;50.91;99278.81;4948431;28;103487;-57
2022/08/09 11:43:47;;;;;;;;;0.00;0.00;;;;;24.32;50.98;99286.00;4950859;28;102249;-57
2022/08/09 11:46:14;;;;;;;;;0.00;0.00;;;;;24.32;51.08;99283.22;4952645;28;102296;-57
2022/08/09 11:48:58;;;;;;;;;1.00;1.00;;;;;24.33;51.14;99287.66;4956172;28;109047;-57
2022/08/09 11:51:26;;;;;;;;;0.67;0.67;;;;;24.33;51.11;99286.81;4953754;28;102399;-57
2022/08/09 11:54:15;;;;;;;;;0.67;0.67;;;;;24.33;51.35;99287.66;4948079;28;102312;-57
2022/08/09 11:56:53;;;;;;;;;0.00;0.00;;;;;24.34;51.01;99288.50;4955826;28;103139;-57
2022/08/09 11:59:27;;;;;;;;;0.33;0.33;;;;;24.34;50.96;99294.84;4950538;28;104150;-57
2022/08/09 12:01:59;;;;;;;;;0.00;0.00;;;;;24.34;51.08;99286.56;4948313;28;102106;-57
2022/08/09 12:04:44;;;;;;;;;0.00;0.00;;;;;24.35;51.25;99287.38;4941199;28;102179;-57
2022/08/09 12:07:11;;;;;;;;;0.00;0.00;;;;;24.35;51.26;99287.38;4949412;28;102129;-57
2022/08/09 12:09:42;;;;;;;;;1.00;0.67;;;;;24.34;50.83;99283.78;4953527;28;104069;-57